createdAt,value
2019-01-31T00:01:10.883Z,16.57
2019-01-31T00:03:47.030Z,10.90
2019-01-31T00:06:33.803Z,8.48
2019-01-31T00:09:18.875Z,7.10
2019-01-31T00:12:07.306Z,10.18
2019-01-31T00:14:40.661Z,7.95
2019-01-31T00:17:11.240Z,11.35
2019-01-31T00:19:47.451Z,9.13
2019-01-31T00:22:49.787Z,9.63
2019-01-31T00:25:36.411Z,8.10
2019-01-31T00:28:11.994Z,7.40
2019-01-31T00:30:44.990Z,5.85
2019-01-31T00:33:27.048Z,5.95
2019-01-31T00:36:03.252Z,5.03
2019-01-31T00:38:33.536Z,9.45
2019-01-31T00:41:31.033Z,7.97
2019-01-31T00:44:22.516Z,17.07
2019-01-31T00:47:10.813Z,16.52
2019-01-31T00:49:46.987Z,14.35
2019-01-31T00:52:25.474Z,7.00
2019-01-31T00:55:07.659Z,9.70
2019-01-31T00:57:57.296Z,5.95
2019-01-31T01:00:44.168Z,5.90
2019-01-31T01:03:17.450Z,4.10
2019-01-31T01:06:08.907Z,5.08
2019-01-31T01:08:51.059Z,3.83
2019-01-31T01:11:38.716Z,5.28
2019-01-31T01:14:08.895Z,8.23
2019-01-31T01:16:41.663Z,5.40
2019-01-31T01:19:20.847Z,6.40
2019-01-31T01:22:16.489Z,4.37
2019-01-31T01:25:09.428Z,8.13
2019-01-31T01:27:45.882Z,11.60
2019-01-31T01:30:34.035Z,7.60
2019-01-31T01:33:12.837Z,10.10
2019-01-31T01:35:48.873Z,9.38
2019-01-31T01:38:28.319Z,6.75
2019-01-31T01:41:14.882Z,8.35
2019-01-31T01:43:53.439Z,9.05
2019-01-31T01:46:29.836Z,6.37
2019-01-31T01:49:12.293Z,17.25
2019-01-31T01:51:43.531Z,8.50
2019-01-31T01:54:25.637Z,16.85
2019-01-31T01:56:58.594Z,14.80
2019-01-31T01:59:53.934Z,10.80
2019-01-31T02:02:42.108Z,7.55
2019-01-31T02:05:18.511Z,10.82
2019-01-31T02:07:51.767Z,9.68
2019-01-31T02:10:28.030Z,9.60
2019-01-31T02:13:13.792Z,8.28
2019-01-31T02:15:47.115Z,5.58
2019-01-31T02:18:20.464Z,5.05
2019-01-31T02:21:18.055Z,8.53
2019-01-31T02:23:51.098Z,10.78
2019-01-31T02:26:42.110Z,7.83
2019-01-31T02:29:31.253Z,10.23
2019-01-31T02:32:18.263Z,9.70
2019-01-31T02:34:51.350Z,9.05
2019-01-31T02:37:30.325Z,12.53
2019-01-31T02:40:24.766Z,9.40
2019-01-31T02:42:57.814Z,9.25
2019-01-31T02:45:43.002Z,5.92
2019-01-31T02:48:24.752Z,5.75
2019-01-31T02:50:57.916Z,9.98
2019-01-31T02:53:37.332Z,8.13
2019-01-31T02:56:37.845Z,6.92
2019-01-31T02:59:14.000Z,10.40
2019-01-31T03:01:53.108Z,12.55
2019-01-31T03:04:59.343Z,13.70
2019-01-31T03:07:35.514Z,5.58
2019-01-31T03:10:20.310Z,9.75
2019-01-31T03:12:59.348Z,10.15
2019-01-31T03:15:35.494Z,6.80
2019-01-31T03:18:14.626Z,6.35
2019-01-31T03:20:50.760Z,9.75
2019-01-31T03:23:33.197Z,5.95
2019-01-31T03:26:06.424Z,6.92
2019-01-31T03:28:59.180Z,6.20
2019-01-31T03:31:47.556Z,10.03
2019-01-31T03:34:17.853Z,6.50
2019-01-31T03:37:05.715Z,6.12
2019-01-31T03:40:05.729Z,7.97
2019-01-31T03:42:48.663Z,7.28
2019-01-31T03:45:30.096Z,7.60
2019-01-31T03:48:31.058Z,6.45
2019-01-31T03:51:10.185Z,5.92
2019-01-31T03:53:52.243Z,5.78
2019-01-31T03:56:31.252Z,8.78
2019-01-31T03:59:07.628Z,4.45
2019-01-31T04:01:37.908Z,5.55
2019-01-31T04:04:14.432Z,10.32
2019-01-31T04:06:40.857Z,6.10
2019-01-31T04:09:08.225Z,6.53
2019-01-31T04:11:34.866Z,6.87
2019-01-31T04:14:01.352Z,5.35
2019-01-31T04:16:27.904Z,5.55
2019-01-31T04:18:54.388Z,5.95
2019-01-31T04:21:20.959Z,6.55
2019-01-31T04:23:47.433Z,10.43
2019-01-31T04:26:13.786Z,5.60
2019-01-31T04:28:40.287Z,7.55
2019-01-31T04:31:06.872Z,8.28
2019-01-31T04:33:33.489Z,4.50
2019-01-31T04:36:00.237Z,5.15
2019-01-31T04:38:26.939Z,6.12
2019-01-31T04:40:53.371Z,5.83
2019-01-31T04:43:19.722Z,7.50
2019-01-31T04:45:46.293Z,5.58
2019-01-31T04:48:12.846Z,7.22
2019-01-31T04:50:39.329Z,11.63
2019-01-31T04:53:05.776Z,8.10
2019-01-31T04:55:32.236Z,8.20
2019-01-31T04:58:00.627Z,7.62
2019-01-31T05:00:27.219Z,12.65
2019-01-31T05:02:53.861Z,7.33
2019-01-31T05:05:20.577Z,7.37
2019-01-31T05:07:47.033Z,6.90
2019-01-31T05:10:13.689Z,7.45
2019-01-31T05:12:40.367Z,8.80
2019-01-31T05:15:11.859Z,7.67
2019-01-31T05:17:38.644Z,8.63
2019-01-31T05:20:11.395Z,5.28
2019-01-31T05:22:37.972Z,7.67
2019-01-31T05:25:06.552Z,7.62
2019-01-31T05:27:33.035Z,6.00
2019-01-31T05:29:59.467Z,5.45
2019-01-31T05:32:26.063Z,5.53
2019-01-31T05:34:52.721Z,5.45
2019-01-31T05:37:19.187Z,9.53
2019-01-31T05:39:45.542Z,8.48
2019-01-31T05:42:11.980Z,6.00
2019-01-31T05:44:38.641Z,9.13
2019-01-31T05:47:05.189Z,7.42
2019-01-31T05:49:31.650Z,7.90
2019-01-31T05:51:58.098Z,5.85
2019-01-31T05:54:24.565Z,8.95
2019-01-31T05:56:51.015Z,9.05
2019-01-31T05:59:17.498Z,6.58
2019-01-31T06:01:44.046Z,7.42
2019-01-31T06:04:10.520Z,8.50
2019-01-31T06:06:37.189Z,7.37
2019-01-31T06:09:06.247Z,8.10
2019-01-31T06:11:32.820Z,7.12
2019-01-31T06:13:59.291Z,12.78
2019-01-31T06:16:25.744Z,15.28
2019-01-31T06:18:52.422Z,14.43
2019-01-31T06:21:18.868Z,10.63
2019-01-31T06:23:45.394Z,8.68
2019-01-31T06:26:11.762Z,10.00
2019-01-31T06:28:38.113Z,13.62
2019-01-31T06:31:04.706Z,18.05
2019-01-31T06:33:31.244Z,18.02
2019-01-31T06:35:57.812Z,9.88
2019-01-31T06:38:26.439Z,13.25
2019-01-31T06:40:52.916Z,12.63
2019-01-31T06:43:19.457Z,11.05
2019-01-31T06:45:46.241Z,12.45
2019-01-31T06:48:12.588Z,15.70
2019-01-31T06:50:39.268Z,15.50
2019-01-31T06:53:05.724Z,15.40
2019-01-31T06:55:32.171Z,16.20
2019-01-31T06:57:58.909Z,20.92
2019-01-31T07:00:25.389Z,14.87
2019-01-31T07:02:52.131Z,17.98
2019-01-31T07:05:18.953Z,11.63
2019-01-31T07:07:45.636Z,20.85
2019-01-31T07:10:21.384Z,18.15
2019-01-31T07:12:48.073Z,23.27
2019-01-31T07:15:14.723Z,18.98
2019-01-31T07:17:41.348Z,13.30
2019-01-31T07:20:11.013Z,20.30
2019-01-31T07:22:37.527Z,12.55
2019-01-31T07:25:07.170Z,26.17
2019-01-31T07:27:33.932Z,18.80
2019-01-31T07:30:00.530Z,42.53
2019-01-31T07:32:26.980Z,30.05
2019-01-31T07:34:53.725Z,39.38
2019-01-31T07:37:20.505Z,33.95
2019-01-31T07:39:46.968Z,22.58
2019-01-31T07:42:13.576Z,20.50
2019-01-31T07:44:40.036Z,21.45
2019-01-31T07:47:06.504Z,30.88
2019-01-31T07:49:33.195Z,30.45
2019-01-31T07:51:59.850Z,29.27
2019-01-31T07:54:26.307Z,25.37
2019-01-31T07:56:52.957Z,23.65
2019-01-31T07:59:19.334Z,22.55
2019-01-31T08:01:46.166Z,17.77
2019-01-31T08:04:12.629Z,15.05
2019-01-31T08:06:39.408Z,9.15
2019-01-31T08:09:06.496Z,11.10
2019-01-31T08:11:33.153Z,9.25
2019-01-31T08:13:59.596Z,9.43
2019-01-31T08:16:25.981Z,13.40
2019-01-31T08:18:52.455Z,11.30
2019-01-31T08:21:19.207Z,10.28
2019-01-31T08:23:45.764Z,11.20
2019-01-31T08:26:12.352Z,13.45
2019-01-31T08:28:39.109Z,8.08
2019-01-31T08:31:05.828Z,9.55
2019-01-31T08:33:32.762Z,11.20
2019-01-31T08:35:59.241Z,17.60
2019-01-31T08:38:26.009Z,8.93
2019-01-31T08:40:52.475Z,7.78
2019-01-31T08:43:20.498Z,16.30
2019-01-31T08:45:48.940Z,10.82
2019-01-31T08:48:15.532Z,13.65
2019-01-31T08:50:42.307Z,7.92
2019-01-31T08:53:08.985Z,6.53
2019-01-31T08:55:35.433Z,7.65
2019-01-31T08:58:02.161Z,5.65
2019-01-31T09:00:30.076Z,8.93
2019-01-31T09:02:57.151Z,8.20
2019-01-31T09:05:23.739Z,7.45
2019-01-31T09:07:50.680Z,10.48
2019-01-31T09:10:20.373Z,11.25
2019-01-31T09:12:46.816Z,8.50
2019-01-31T09:15:16.119Z,9.50
2019-01-31T09:17:42.789Z,6.72
2019-01-31T09:20:12.878Z,7.25
2019-01-31T09:22:42.701Z,7.00
2019-01-31T09:25:31.100Z,10.35
2019-01-31T09:28:19.468Z,8.90
2019-01-31T09:31:23.098Z,10.68
2019-01-31T09:34:18.903Z,11.68
2019-01-31T09:36:58.451Z,8.28
2019-01-31T09:39:37.708Z,12.35
2019-01-31T09:42:13.944Z,9.05
2019-01-31T09:45:04.779Z,13.78
2019-01-31T09:47:40.237Z,10.68
2019-01-31T09:50:35.985Z,12.07
2019-01-31T09:53:06.276Z,8.33
2019-01-31T09:55:48.450Z,11.05
2019-01-31T09:58:28.114Z,14.47
2019-01-31T10:01:26.132Z,12.45
2019-01-31T10:04:05.502Z,11.68
2019-01-31T10:06:44.973Z,12.68
2019-01-31T10:09:29.591Z,10.32
2019-01-31T10:12:15.078Z,14.75
2019-01-31T10:14:51.565Z,17.37
2019-01-31T10:17:45.856Z,11.35
2019-01-31T10:20:34.024Z,14.10
2019-01-31T10:23:09.955Z,13.62
2019-01-31T10:25:49.085Z,11.70
2019-01-31T10:28:37.895Z,13.43
2019-01-31T10:31:23.286Z,14.70
2019-01-31T10:34:02.639Z,13.45
2019-01-31T10:36:33.013Z,14.15
2019-01-31T10:39:12.404Z,13.35
2019-01-31T10:41:54.644Z,15.15
2019-01-31T10:44:33.755Z,16.95
2019-01-31T10:47:25.153Z,13.28
2019-01-31T10:50:01.562Z,12.10
2019-01-31T10:52:40.764Z,12.63
2019-01-31T10:55:14.202Z,12.90
2019-01-31T10:57:53.063Z,17.77
2019-01-31T11:00:23.550Z,15.35
2019-01-31T11:02:59.790Z,14.60
2019-01-31T11:05:42.385Z,14.85
2019-01-31T11:08:35.413Z,16.80
2019-01-31T11:11:20.929Z,11.80
2019-01-31T11:14:03.611Z,13.30
2019-01-31T11:16:53.610Z,14.68
2019-01-31T11:19:35.978Z,15.15
2019-01-31T11:22:09.020Z,15.00
2019-01-31T11:24:45.188Z,17.05
2019-01-31T11:27:24.108Z,14.45
2019-01-31T11:29:57.364Z,12.75
2019-01-31T11:32:42.777Z,11.43
2019-01-31T11:35:29.792Z,16.57
2019-01-31T11:38:18.161Z,11.50
2019-01-31T11:40:54.191Z,13.85
2019-01-31T11:43:30.679Z,12.93
2019-01-31T11:46:00.932Z,9.30
2019-01-31T11:48:46.325Z,10.68
2019-01-31T11:51:49.795Z,13.32
2019-01-31T11:54:36.612Z,14.70
2019-01-31T11:57:18.480Z,16.40
2019-01-31T11:59:44.989Z,14.23
2019-01-31T12:02:11.846Z,14.70
2019-01-31T12:04:38.777Z,13.38
2019-01-31T12:07:05.440Z,14.13
2019-01-31T12:09:32.193Z,13.13
2019-01-31T12:11:59.101Z,14.03
2019-01-31T12:14:25.778Z,12.43
2019-01-31T12:16:52.429Z,10.35
2019-01-31T12:19:19.184Z,10.98
2019-01-31T12:21:45.972Z,17.87
2019-01-31T12:24:16.581Z,12.78
2019-01-31T12:26:41.362Z,13.00
2019-01-31T12:29:08.092Z,18.67
2019-01-31T12:31:34.984Z,17.60
2019-01-31T12:34:02.016Z,20.48
2019-01-31T12:36:28.608Z,33.40
2019-01-31T12:38:55.315Z,22.60
2019-01-31T12:41:22.005Z,19.80
2019-01-31T12:43:48.790Z,25.00
2019-01-31T12:46:15.652Z,22.42
2019-01-31T12:48:42.096Z,22.82
2019-01-31T12:51:08.752Z,21.87
2019-01-31T12:53:35.242Z,19.37
2019-01-31T12:56:01.789Z,20.75
2019-01-31T12:58:33.627Z,23.02
2019-01-31T13:00:56.945Z,18.45
2019-01-31T13:03:23.536Z,17.95
2019-01-31T13:05:50.288Z,19.05
2019-01-31T13:08:16.940Z,25.55
2019-01-31T13:10:43.571Z,22.30
2019-01-31T13:13:10.468Z,19.07
2019-01-31T13:15:36.928Z,19.62
2019-01-31T13:18:04.178Z,22.48
2019-01-31T13:20:30.804Z,26.65
2019-01-31T13:22:57.437Z,21.93
2019-01-31T13:25:24.711Z,17.65
2019-01-31T13:27:51.662Z,19.00
2019-01-31T13:30:20.244Z,23.75
2019-01-31T13:32:46.904Z,20.65
2019-01-31T13:35:14.975Z,24.72
2019-01-31T13:37:42.000Z,16.42
2019-01-31T13:40:14.964Z,18.55
2019-01-31T13:42:41.653Z,20.00
2019-01-31T13:45:11.556Z,26.02
2019-01-31T13:47:38.311Z,18.70
2019-01-31T13:50:08.236Z,18.45
2019-01-31T13:52:34.922Z,23.55
2019-01-31T13:55:01.476Z,20.88
2019-01-31T13:57:28.040Z,17.75
2019-01-31T13:59:54.592Z,20.45
2019-01-31T14:02:21.254Z,22.87
2019-01-31T14:04:47.915Z,19.40
2019-01-31T14:07:14.388Z,16.45
2019-01-31T14:09:40.925Z,17.67
2019-01-31T14:12:07.675Z,28.77
2019-01-31T14:14:34.256Z,20.62
2019-01-31T14:17:00.635Z,20.72
2019-01-31T14:19:27.204Z,25.75
2019-01-31T14:21:53.645Z,22.58
2019-01-31T14:24:20.144Z,21.20
2019-01-31T14:26:46.830Z,20.12
2019-01-31T14:29:13.589Z,20.12
2019-01-31T14:31:40.131Z,24.25
2019-01-31T14:34:09.075Z,19.25
2019-01-31T14:36:34.967Z,24.57
2019-01-31T14:39:01.588Z,25.40
2019-01-31T14:41:28.118Z,27.25
2019-01-31T14:43:54.840Z,20.10
2019-01-31T14:46:21.296Z,22.07
2019-01-31T14:48:47.839Z,27.67
2019-01-31T14:51:14.517Z,28.95
2019-01-31T14:53:41.100Z,27.82
2019-01-31T14:56:07.752Z,26.68
2019-01-31T14:58:34.429Z,29.25
2019-01-31T15:01:00.993Z,29.40
2019-01-31T15:03:27.436Z,33.10
2019-01-31T15:05:53.915Z,33.65
2019-01-31T15:08:20.472Z,34.85
2019-01-31T15:10:47.447Z,31.87
2019-01-31T15:13:14.105Z,33.60
2019-01-31T15:15:40.680Z,34.20
2019-01-31T15:18:07.795Z,32.55
2019-01-31T15:20:38.513Z,34.98
2019-01-31T15:23:05.524Z,34.50
2019-01-31T15:25:32.084Z,36.50
2019-01-31T15:27:58.690Z,33.05
2019-01-31T15:30:28.737Z,25.40
2019-01-31T15:32:55.605Z,28.27
2019-01-31T15:35:22.260Z,32.03
2019-01-31T15:37:49.023Z,37.25
2019-01-31T15:40:22.243Z,32.42
2019-01-31T15:42:49.189Z,29.37
2019-01-31T15:45:15.893Z,31.15
2019-01-31T15:47:42.492Z,29.95
2019-01-31T15:50:11.571Z,37.33
2019-01-31T15:52:38.356Z,32.88
2019-01-31T15:55:08.620Z,39.75
2019-01-31T15:57:35.214Z,33.85
2019-01-31T16:00:04.469Z,35.00
2019-01-31T16:02:31.037Z,29.67
2019-01-31T16:04:57.512Z,30.48
2019-01-31T16:07:24.179Z,28.52
2019-01-31T16:09:50.632Z,31.77
2019-01-31T16:12:17.106Z,27.60
2019-01-31T16:14:54.319Z,28.40
2019-01-31T16:17:12.126Z,24.30
2019-01-31T16:19:38.714Z,32.83
2019-01-31T16:22:06.069Z,23.77
2019-01-31T16:24:32.647Z,20.15
2019-01-31T16:26:59.508Z,25.70
2019-01-31T16:29:26.090Z,28.17
2019-01-31T16:31:52.560Z,23.77
2019-01-31T16:34:19.033Z,26.35
2019-01-31T16:36:45.722Z,30.65
2019-01-31T16:39:12.461Z,33.02
2019-01-31T16:41:39.307Z,29.52
2019-01-31T16:44:06.296Z,28.17
2019-01-31T16:46:32.956Z,29.48
2019-01-31T16:48:59.689Z,27.65
2019-01-31T16:51:26.368Z,32.38
2019-01-31T16:53:53.149Z,30.77
2019-01-31T16:56:19.726Z,26.85
2019-01-31T16:58:46.396Z,24.00
2019-01-31T17:01:15.751Z,22.00
2019-01-31T17:03:41.689Z,25.23
2019-01-31T17:06:08.409Z,26.27
2019-01-31T17:08:35.181Z,23.00
2019-01-31T17:11:01.642Z,26.70
2019-01-31T17:13:28.573Z,22.55
2019-01-31T17:15:55.176Z,20.08
2019-01-31T17:18:22.127Z,23.70
2019-01-31T17:20:48.479Z,23.40
2019-01-31T17:23:15.077Z,25.60
2019-01-31T17:25:41.839Z,24.72
2019-01-31T17:28:08.507Z,20.55
2019-01-31T17:30:34.992Z,19.30
2019-01-31T17:33:01.824Z,20.72
2019-01-31T17:35:28.284Z,25.65
2019-01-31T17:37:54.744Z,22.73
2019-01-31T17:40:31.317Z,24.25
2019-01-31T17:42:57.817Z,20.60
2019-01-31T17:45:30.522Z,22.55
2019-01-31T17:47:53.156Z,23.27
2019-01-31T17:50:19.943Z,23.47
2019-01-31T17:52:46.660Z,18.73
2019-01-31T17:55:17.261Z,19.62
2019-01-31T17:57:44.064Z,23.10
2019-01-31T18:00:24.599Z,19.50
2019-01-31T18:02:51.206Z,19.30
2019-01-31T18:05:17.752Z,30.20
2019-01-31T18:07:44.442Z,27.85
2019-01-31T18:10:14.099Z,23.07
2019-01-31T18:12:40.954Z,20.65
2019-01-31T18:15:09.028Z,18.75
2019-01-31T18:17:35.597Z,21.57
2019-01-31T18:20:05.772Z,23.00
2019-01-31T18:22:32.549Z,22.50
2019-01-31T18:24:58.996Z,23.02
2019-01-31T18:27:25.391Z,19.35
2019-01-31T18:29:51.748Z,21.60
2019-01-31T18:32:18.362Z,22.75
2019-01-31T18:34:44.908Z,19.00
2019-01-31T18:37:11.457Z,30.82
2019-01-31T18:39:38.100Z,22.45
2019-01-31T18:42:04.925Z,26.55
2019-01-31T18:44:31.312Z,28.92
2019-01-31T18:46:57.884Z,24.98
2019-01-31T18:49:24.356Z,41.05
2019-01-31T18:51:50.887Z,21.48
2019-01-31T18:54:17.976Z,22.93
2019-01-31T18:56:44.545Z,19.00
2019-01-31T18:59:11.278Z,15.18
2019-01-31T19:01:37.918Z,15.45
2019-01-31T19:04:04.685Z,16.93
2019-01-31T19:06:31.156Z,16.93
2019-01-31T19:08:57.807Z,23.12
2019-01-31T19:11:24.189Z,21.77
2019-01-31T19:13:50.639Z,21.62
2019-01-31T19:16:17.123Z,19.42
2019-01-31T19:18:43.572Z,16.80
2019-01-31T19:21:10.063Z,17.48
2019-01-31T19:23:36.513Z,19.00
2019-01-31T19:26:03.621Z,15.75
2019-01-31T19:28:30.271Z,20.68
2019-01-31T19:30:56.624Z,28.67
2019-01-31T19:33:23.029Z,21.62
2019-01-31T19:35:49.691Z,21.15
2019-01-31T19:38:16.489Z,13.95
2019-01-31T19:40:43.253Z,15.55
2019-01-31T19:43:09.953Z,18.40
2019-01-31T19:45:41.510Z,18.42
2019-01-31T19:48:08.594Z,16.35
2019-01-31T19:50:35.345Z,12.00
2019-01-31T19:53:02.211Z,12.60
2019-01-31T19:55:28.767Z,14.03
2019-01-31T19:57:55.220Z,14.95
2019-01-31T20:00:25.646Z,19.37
2019-01-31T20:02:52.414Z,13.48
2019-01-31T20:05:19.358Z,11.95
2019-01-31T20:07:46.208Z,16.25
2019-01-31T20:10:21.498Z,16.90
2019-01-31T20:12:48.192Z,11.28
2019-01-31T20:15:15.174Z,20.62
2019-01-31T20:17:41.812Z,18.17
2019-01-31T20:20:20.022Z,14.90
2019-01-31T20:22:47.809Z,12.58
2019-01-31T20:25:14.560Z,16.17
2019-01-31T20:27:42.709Z,10.35
2019-01-31T20:30:12.953Z,13.85
2019-01-31T20:32:39.529Z,13.65
2019-01-31T20:35:09.650Z,13.25
2019-01-31T20:37:36.212Z,12.43
2019-01-31T20:40:06.159Z,18.27
2019-01-31T20:42:32.827Z,17.23
2019-01-31T20:44:59.277Z,13.22
2019-01-31T20:47:25.872Z,18.65
2019-01-31T20:49:52.325Z,15.03
2019-01-31T20:52:18.809Z,14.55
2019-01-31T20:54:45.273Z,10.82
2019-01-31T20:57:11.949Z,15.43
2019-01-31T20:59:38.596Z,18.62
2019-01-31T21:02:05.678Z,14.35
2019-01-31T21:04:32.257Z,16.12
2019-01-31T21:06:58.815Z,16.15
2019-01-31T21:09:28.489Z,17.23
2019-01-31T21:11:53.997Z,17.12
2019-01-31T21:14:20.462Z,15.88
2019-01-31T21:16:51.756Z,16.42
2019-01-31T21:19:15.439Z,14.87
2019-01-31T21:21:42.084Z,15.78
2019-01-31T21:24:08.469Z,20.27
2019-01-31T21:26:34.916Z,19.17
2019-01-31T21:29:01.613Z,25.27
2019-01-31T21:31:28.308Z,18.82
2019-01-31T21:33:54.780Z,19.25
2019-01-31T21:36:21.337Z,16.42
2019-01-31T21:38:47.946Z,18.70
2019-01-31T21:41:14.492Z,21.33
2019-01-31T21:43:41.045Z,16.60
2019-01-31T21:46:07.739Z,29.40
2019-01-31T21:48:34.191Z,23.38
2019-01-31T21:51:01.045Z,18.00
2019-01-31T21:53:27.436Z,21.02
2019-01-31T21:55:54.142Z,22.55
2019-01-31T21:58:20.797Z,21.57
2019-01-31T22:00:47.467Z,15.90
2019-01-31T22:03:14.026Z,22.58
2019-01-31T22:05:40.704Z,17.87
2019-01-31T22:08:07.371Z,16.17
2019-01-31T22:10:34.425Z,19.02
2019-01-31T22:13:02.784Z,16.30
2019-01-31T22:15:31.748Z,17.85
2019-01-31T22:18:00.382Z,16.87
2019-01-31T22:20:26.885Z,14.05
2019-01-31T22:22:53.871Z,15.00
2019-01-31T22:25:21.725Z,14.78
2019-01-31T22:27:48.504Z,9.90
2019-01-31T22:30:23.940Z,11.70
2019-01-31T22:32:50.666Z,14.70
2019-01-31T22:35:17.256Z,14.13
2019-01-31T22:37:44.275Z,17.25
2019-01-31T22:40:13.067Z,17.40
2019-01-31T22:42:39.540Z,15.08
2019-01-31T22:45:14.625Z,11.40
2019-01-31T22:47:41.176Z,14.83
2019-01-31T22:50:10.652Z,11.00
2019-01-31T22:52:37.263Z,10.50
2019-01-31T22:55:06.994Z,13.25
2019-01-31T22:57:33.647Z,11.55
2019-01-31T23:00:00.301Z,12.50
2019-01-31T23:02:27.152Z,10.30
2019-01-31T23:04:54.154Z,8.05
2019-01-31T23:07:20.804Z,12.68
2019-01-31T23:09:47.252Z,11.12
2019-01-31T23:12:14.145Z,11.00
2019-01-31T23:14:40.906Z,9.70
2019-01-31T23:17:07.613Z,12.65
2019-01-31T23:19:34.169Z,10.88
2019-01-31T23:22:00.633Z,9.83
2019-01-31T23:24:27.156Z,9.43
2019-01-31T23:26:53.979Z,10.38
2019-01-31T23:29:20.446Z,9.00
2019-01-31T23:31:46.912Z,9.50
2019-01-31T23:34:13.476Z,9.55
2019-01-31T23:36:39.947Z,8.88
2019-01-31T23:39:07.410Z,9.08
2019-01-31T23:41:33.967Z,10.90
2019-01-31T23:44:00.536Z,8.10
2019-01-31T23:46:26.978Z,11.03
2019-01-31T23:48:53.474Z,14.28
2019-01-31T23:51:20.284Z,8.80
2019-01-31T23:53:46.960Z,8.90
2019-01-31T23:56:13.418Z,9.85
2019-01-31T23:58:40.160Z,9.95
